sensor_id;sensor_type;location;lat;lon;timestamp;P1;durP1;ratioP1;P2;durP2;ratioP2
46006;SDS011;31738;50.188;8.524;2022-07-23T00:02:17;7.72;;;6.22;;
46006;SDS011;31738;50.188;8.524;2022-07-23T00:04:42;7.32;;;5.95;;
46006;SDS011;31738;50.188;8.524;2022-07-23T00:07:08;7.28;;;5.70;;
46006;SDS011;31738;50.188;8.524;2022-07-23T00:09:33;7.32;;;5.53;;
46006;SDS011;31738;50.188;8.524;2022-07-23T00:11:59;7.55;;;6.00;;
46006;SDS011;31738;50.188;8.524;2022-07-23T00:14:24;7.20;;;5.93;;
46006;SDS011;31738;50.188;8.524;2022-07-23T00:16:50;8.57;;;6.07;;
46006;SDS011;31738;50.188;8.524;2022-07-23T00:19:15;6.78;;;5.70;;
46006;SDS011;31738;50.188;8.524;2022-07-23T00:21:41;9.40;;;5.70;;
46006;SDS011;31738;50.188;8.524;2022-07-23T00:24:06;7.13;;;5.63;;
46006;SDS011;31738;50.188;8.524;2022-07-23T00:26:32;6.40;;;5.47;;
46006;SDS011;31738;50.188;8.524;2022-07-23T00:28:57;6.82;;;6.07;;
46006;SDS011;31738;50.188;8.524;2022-07-23T00:31:23;8.18;;;6.18;;
46006;SDS011;31738;50.188;8.524;2022-07-23T00:33:48;8.07;;;6.68;;
46006;SDS011;31738;50.188;8.524;2022-07-23T00:36:15;7.35;;;5.90;;
46006;SDS011;31738;50.188;8.524;2022-07-23T00:38:41;7.60;;;5.88;;
46006;SDS011;31738;50.188;8.524;2022-07-23T00:41:07;7.63;;;5.68;;
46006;SDS011;31738;50.188;8.524;2022-07-23T00:43:32;9.18;;;6.13;;
46006;SDS011;31738;50.188;8.524;2022-07-23T00:45:58;8.55;;;6.00;;
46006;SDS011;31738;50.188;8.524;2022-07-23T00:48:23;6.13;;;5.43;;
46006;SDS011;31738;50.188;8.524;2022-07-23T00:50:49;8.55;;;6.15;;
46006;SDS011;31738;50.188;8.524;2022-07-23T00:53:14;7.95;;;5.93;;
46006;SDS011;31738;50.188;8.524;2022-07-23T00:55:40;7.70;;;5.85;;
46006;SDS011;31738;50.188;8.524;2022-07-23T00:58:06;8.80;;;6.32;;
46006;SDS011;31738;50.188;8.524;2022-07-23T01:00:33;8.98;;;6.10;;
46006;SDS011;31738;50.188;8.524;2022-07-23T01:02:59;10.57;;;6.63;;
46006;SDS011;31738;50.188;8.524;2022-07-23T01:05:24;7.28;;;5.85;;
46006;SDS011;31738;50.188;8.524;2022-07-23T01:07:50;7.43;;;5.97;;
46006;SDS011;31738;50.188;8.524;2022-07-23T01:10:17;9.35;;;5.70;;
46006;SDS011;31738;50.188;8.524;2022-07-23T01:12:58;9.88;;;6.15;;
46006;SDS011;31738;50.188;8.524;2022-07-23T01:15:25;9.20;;;6.78;;
46006;SDS011;31738;50.188;8.524;2022-07-23T01:17:51;10.00;;;6.55;;
46006;SDS011;31738;50.188;8.524;2022-07-23T01:20:17;9.98;;;5.78;;
46006;SDS011;31738;50.188;8.524;2022-07-23T01:22:43;7.05;;;5.55;;
46006;SDS011;31738;50.188;8.524;2022-07-23T01:25:09;9.50;;;6.57;;
46006;SDS011;31738;50.188;8.524;2022-07-23T01:27:36;8.80;;;6.68;;
46006;SDS011;31738;50.188;8.524;2022-07-23T01:30:03;8.75;;;6.78;;
46006;SDS011;31738;50.188;8.524;2022-07-23T01:32:29;9.20;;;6.55;;
46006;SDS011;31738;50.188;8.524;2022-07-23T01:34:55;10.40;;;6.88;;
46006;SDS011;31738;50.188;8.524;2022-07-23T01:37:20;9.57;;;6.53;;
46006;SDS011;31738;50.188;8.524;2022-07-23T01:39:46;8.68;;;6.80;;
46006;SDS011;31738;50.188;8.524;2022-07-23T01:42:13;8.80;;;6.35;;
46006;SDS011;31738;50.188;8.524;2022-07-23T01:44:39;10.52;;;6.68;;
46006;SDS011;31738;50.188;8.524;2022-07-23T01:47:10;10.55;;;6.95;;
46006;SDS011;31738;50.188;8.524;2022-07-23T01:49:36;9.02;;;6.82;;
46006;SDS011;31738;50.188;8.524;2022-07-23T01:52:02;10.40;;;6.35;;
46006;SDS011;31738;50.188;8.524;2022-07-23T01:54:35;8.68;;;6.10;;
46006;SDS011;31738;50.188;8.524;2022-07-23T01:57:02;9.38;;;6.43;;
46006;SDS011;31738;50.188;8.524;2022-07-23T01:59:28;9.93;;;6.78;;
46006;SDS011;31738;50.188;8.524;2022-07-23T02:01:54;11.15;;;6.68;;
46006;SDS011;31738;50.188;8.524;2022-07-23T02:04:20;9.70;;;6.72;;
46006;SDS011;31738;50.188;8.524;2022-07-23T02:06:46;9.18;;;6.28;;
46006;SDS011;31738;50.188;8.524;2022-07-23T02:09:12;11.10;;;7.20;;
46006;SDS011;31738;50.188;8.524;2022-07-23T02:11:38;8.00;;;6.43;;
46006;SDS011;31738;50.188;8.524;2022-07-23T02:14:03;10.68;;;6.75;;
46006;SDS011;31738;50.188;8.524;2022-07-23T02:16:29;8.27;;;6.55;;
46006;SDS011;31738;50.188;8.524;2022-07-23T02:19:00;8.68;;;6.75;;
46006;SDS011;31738;50.188;8.524;2022-07-23T02:21:26;7.88;;;6.43;;
46006;SDS011;31738;50.188;8.524;2022-07-23T02:23:52;10.85;;;6.90;;
46006;SDS011;31738;50.188;8.524;2022-07-23T02:26:18;8.07;;;6.07;;
46006;SDS011;31738;50.188;8.524;2022-07-23T02:28:44;7.60;;;6.25;;
46006;SDS011;31738;50.188;8.524;2022-07-23T02:31:10;11.77;;;7.30;;
46006;SDS011;31738;50.188;8.524;2022-07-23T02:33:36;7.60;;;5.65;;
46006;SDS011;31738;50.188;8.524;2022-07-23T02:36:01;9.05;;;6.57;;
46006;SDS011;31738;50.188;8.524;2022-07-23T02:38:27;8.63;;;6.03;;
46006;SDS011;31738;50.188;8.524;2022-07-23T02:40:53;8.65;;;6.65;;
46006;SDS011;31738;50.188;8.524;2022-07-23T02:43:18;9.07;;;7.00;;
46006;SDS011;31738;50.188;8.524;2022-07-23T02:45:45;9.23;;;5.70;;
46006;SDS011;31738;50.188;8.524;2022-07-23T02:48:10;10.40;;;5.90;;
46006;SDS011;31738;50.188;8.524;2022-07-23T02:50:38;8.98;;;5.72;;
46006;SDS011;31738;50.188;8.524;2022-07-23T02:53:04;7.85;;;6.10;;
46006;SDS011;31738;50.188;8.524;2022-07-23T02:55:30;8.73;;;6.55;;
46006;SDS011;31738;50.188;8.524;2022-07-23T02:58:00;8.05;;;5.70;;
46006;SDS011;31738;50.188;8.524;2022-07-23T03:00:26;7.55;;;6.13;;
46006;SDS011;31738;50.188;8.524;2022-07-23T03:02:52;10.30;;;5.80;;
46006;SDS011;31738;50.188;8.524;2022-07-23T03:05:17;8.43;;;6.13;;
46006;SDS011;31738;50.188;8.524;2022-07-23T03:07:43;7.38;;;5.70;;
46006;SDS011;31738;50.188;8.524;2022-07-23T03:10:08;9.38;;;6.13;;
46006;SDS011;31738;50.188;8.524;2022-07-23T03:12:34;8.85;;;6.80;;
46006;SDS011;31738;50.188;8.524;2022-07-23T03:14:59;8.30;;;5.68;;
46006;SDS011;31738;50.188;8.524;2022-07-23T03:17:26;8.45;;;6.22;;
46006;SDS011;31738;50.188;8.524;2022-07-23T03:19:52;9.15;;;6.65;;
46006;SDS011;31738;50.188;8.524;2022-07-23T03:22:17;9.10;;;6.75;;
46006;SDS011;31738;50.188;8.524;2022-07-23T03:24:43;8.98;;;6.35;;
46006;SDS011;31738;50.188;8.524;2022-07-23T03:27:25;9.23;;;6.75;;
46006;SDS011;31738;50.188;8.524;2022-07-23T03:29:52;9.90;;;7.35;;
46006;SDS011;31738;50.188;8.524;2022-07-23T03:32:19;10.95;;;7.35;;
46006;SDS011;31738;50.188;8.524;2022-07-23T03:34:45;9.45;;;6.80;;
46006;SDS011;31738;50.188;8.524;2022-07-23T03:37:11;12.40;;;7.88;;
46006;SDS011;31738;50.188;8.524;2022-07-23T03:39:37;10.80;;;7.40;;
46006;SDS011;31738;50.188;8.524;2022-07-23T03:42:02;13.02;;;7.97;;
46006;SDS011;31738;50.188;8.524;2022-07-23T03:44:28;12.30;;;8.05;;
46006;SDS011;31738;50.188;8.524;2022-07-23T03:46:53;8.65;;;7.47;;
46006;SDS011;31738;50.188;8.524;2022-07-23T03:49:19;11.75;;;8.13;;
46006;SDS011;31738;50.188;8.524;2022-07-23T03:51:44;11.07;;;7.22;;
46006;SDS011;31738;50.188;8.524;2022-07-23T03:54:10;11.30;;;7.72;;
46006;SDS011;31738;50.188;8.524;2022-07-23T03:56:35;11.18;;;7.70;;
46006;SDS011;31738;50.188;8.524;2022-07-23T03:59:01;11.77;;;7.97;;
46006;SDS011;31738;50.188;8.524;2022-07-23T04:01:27;13.48;;;8.10;;
46006;SDS011;31738;50.188;8.524;2022-07-23T04:03:52;10.02;;;7.63;;
46006;SDS011;31738;50.188;8.524;2022-07-23T04:06:18;11.55;;;7.15;;
46006;SDS011;31738;50.188;8.524;2022-07-23T04:08:44;11.45;;;7.60;;
46006;SDS011;31738;50.188;8.524;2022-07-23T04:11:09;10.77;;;8.07;;
46006;SDS011;31738;50.188;8.524;2022-07-23T04:13:35;11.60;;;7.85;;
46006;SDS011;31738;50.188;8.524;2022-07-23T04:16:02;12.18;;;7.90;;
46006;SDS011;31738;50.188;8.524;2022-07-23T04:18:29;14.35;;;9.38;;
46006;SDS011;31738;50.188;8.524;2022-07-23T04:21:15;14.40;;;8.52;;
46006;SDS011;31738;50.188;8.524;2022-07-23T04:23:40;11.13;;;7.57;;
46006;SDS011;31738;50.188;8.524;2022-07-23T04:26:06;13.80;;;8.60;;
46006;SDS011;31738;50.188;8.524;2022-07-23T04:28:32;9.25;;;7.78;;
46006;SDS011;31738;50.188;8.524;2022-07-23T04:30:57;11.73;;;8.15;;
46006;SDS011;31738;50.188;8.524;2022-07-23T04:33:23;11.82;;;7.72;;
46006;SDS011;31738;50.188;8.524;2022-07-23T04:35:52;12.48;;;7.35;;
46006;SDS011;31738;50.188;8.524;2022-07-23T04:38:19;12.82;;;8.00;;
46006;SDS011;31738;50.188;8.524;2022-07-23T04:40:45;12.10;;;7.10;;
46006;SDS011;31738;50.188;8.524;2022-07-23T04:43:11;13.73;;;7.95;;
46006;SDS011;31738;50.188;8.524;2022-07-23T04:45:43;13.80;;;8.45;;
46006;SDS011;31738;50.188;8.524;2022-07-23T04:48:09;11.00;;;7.30;;
46006;SDS011;31738;50.188;8.524;2022-07-23T04:50:34;14.52;;;8.15;;
46006;SDS011;31738;50.188;8.524;2022-07-23T04:53:00;13.38;;;7.50;;
46006;SDS011;31738;50.188;8.524;2022-07-23T04:55:26;13.95;;;8.60;;
46006;SDS011;31738;50.188;8.524;2022-07-23T04:57:52;13.07;;;7.82;;
46006;SDS011;31738;50.188;8.524;2022-07-23T05:00:17;13.20;;;7.50;;
46006;SDS011;31738;50.188;8.524;2022-07-23T05:02:43;15.05;;;8.50;;
46006;SDS011;31738;50.188;8.524;2022-07-23T05:05:09;12.30;;;8.05;;
46006;SDS011;31738;50.188;8.524;2022-07-23T05:07:35;11.65;;;7.38;;
46006;SDS011;31738;50.188;8.524;2022-07-23T05:10:00;12.57;;;7.95;;
46006;SDS011;31738;50.188;8.524;2022-07-23T05:12:25;12.82;;;8.45;;
46006;SDS011;31738;50.188;8.524;2022-07-23T05:14:51;15.40;;;8.02;;
46006;SDS011;31738;50.188;8.524;2022-07-23T05:17:19;15.75;;;9.05;;
46006;SDS011;31738;50.188;8.524;2022-07-23T05:19:44;11.20;;;7.80;;
46006;SDS011;31738;50.188;8.524;2022-07-23T05:22:10;12.90;;;8.75;;
46006;SDS011;31738;50.188;8.524;2022-07-23T05:24:35;14.70;;;8.98;;
46006;SDS011;31738;50.188;8.524;2022-07-23T05:27:02;15.15;;;8.88;;
46006;SDS011;31738;50.188;8.524;2022-07-23T05:29:27;12.68;;;8.20;;
46006;SDS011;31738;50.188;8.524;2022-07-23T05:31:53;14.57;;;8.88;;
46006;SDS011;31738;50.188;8.524;2022-07-23T05:34:19;12.85;;;7.95;;
46006;SDS011;31738;50.188;8.524;2022-07-23T05:36:46;14.43;;;8.45;;
46006;SDS011;31738;50.188;8.524;2022-07-23T05:39:11;13.75;;;8.00;;
46006;SDS011;31738;50.188;8.524;2022-07-23T05:41:37;13.20;;;7.65;;
46006;SDS011;31738;50.188;8.524;2022-07-23T05:44:03;11.35;;;8.05;;
46006;SDS011;31738;50.188;8.524;2022-07-23T05:46:29;12.15;;;7.35;;
46006;SDS011;31738;50.188;8.524;2022-07-23T05:49:00;14.27;;;7.07;;
46006;SDS011;31738;50.188;8.524;2022-07-23T05:54:10;10.93;;;6.93;;
46006;SDS011;31738;50.188;8.524;2022-07-23T05:56:38;12.05;;;7.07;;
46006;SDS011;31738;50.188;8.524;2022-07-23T05:59:03;10.70;;;5.95;;
46006;SDS011;31738;50.188;8.524;2022-07-23T06:01:29;9.93;;;6.45;;
46006;SDS011;31738;50.188;8.524;2022-07-23T06:04:06;9.10;;;6.50;;
46006;SDS011;31738;50.188;8.524;2022-07-23T06:06:35;9.20;;;6.30;;
46006;SDS011;31738;50.188;8.524;2022-07-23T06:09:02;9.50;;;6.38;;
46006;SDS011;31738;50.188;8.524;2022-07-23T06:11:28;8.63;;;5.78;;
46006;SDS011;31738;50.188;8.524;2022-07-23T06:13:55;10.75;;;6.07;;
46006;SDS011;31738;50.188;8.524;2022-07-23T06:16:26;10.25;;;5.93;;
46006;SDS011;31738;50.188;8.524;2022-07-23T06:18:51;11.25;;;6.35;;
46006;SDS011;31738;50.188;8.524;2022-07-23T06:21:18;8.43;;;5.55;;
46006;SDS011;31738;50.188;8.524;2022-07-23T06:23:44;10.52;;;6.30;;
46006;SDS011;31738;50.188;8.524;2022-07-23T06:26:09;9.18;;;5.65;;
46006;SDS011;31738;50.188;8.524;2022-07-23T06:28:35;8.07;;;5.80;;
46006;SDS011;31738;50.188;8.524;2022-07-23T06:31:00;10.18;;;6.20;;
46006;SDS011;31738;50.188;8.524;2022-07-23T06:33:28;11.82;;;6.57;;
46006;SDS011;31738;50.188;8.524;2022-07-23T06:36:29;9.50;;;5.68;;
46006;SDS011;31738;50.188;8.524;2022-07-23T06:38:54;8.60;;;5.45;;
46006;SDS011;31738;50.188;8.524;2022-07-23T06:41:20;8.02;;;5.30;;
46006;SDS011;31738;50.188;8.524;2022-07-23T06:43:45;6.88;;;5.50;;
46006;SDS011;31738;50.188;8.524;2022-07-23T06:46:12;6.82;;;5.18;;
46006;SDS011;31738;50.188;8.524;2022-07-23T06:48:38;9.27;;;5.72;;
46006;SDS011;31738;50.188;8.524;2022-07-23T06:51:03;9.32;;;5.60;;
46006;SDS011;31738;50.188;8.524;2022-07-23T06:53:30;8.18;;;5.50;;
46006;SDS011;31738;50.188;8.524;2022-07-23T06:55:55;7.15;;;5.60;;
46006;SDS011;31738;50.188;8.524;2022-07-23T06:58:21;7.93;;;5.60;;
46006;SDS011;31738;50.188;8.524;2022-07-23T07:00:46;7.15;;;5.45;;
46006;SDS011;31738;50.188;8.524;2022-07-23T07:03:12;9.48;;;5.45;;
46006;SDS011;31738;50.188;8.524;2022-07-23T07:05:38;8.63;;;5.28;;
46006;SDS011;31738;50.188;8.524;2022-07-23T07:08:04;7.47;;;5.47;;
46006;SDS011;31738;50.188;8.524;2022-07-23T07:10:30;8.90;;;6.00;;
46006;SDS011;31738;50.188;8.524;2022-07-23T07:12:55;7.93;;;5.32;;
46006;SDS011;31738;50.188;8.524;2022-07-23T07:15:21;8.48;;;4.75;;
46006;SDS011;31738;50.188;8.524;2022-07-23T07:17:46;6.28;;;4.82;;
46006;SDS011;31738;50.188;8.524;2022-07-23T07:20:12;7.95;;;4.68;;
46006;SDS011;31738;50.188;8.524;2022-07-23T07:22:38;6.70;;;5.22;;
46006;SDS011;31738;50.188;8.524;2022-07-23T07:25:03;7.70;;;5.53;;
46006;SDS011;31738;50.188;8.524;2022-07-23T07:27:30;7.30;;;5.35;;
46006;SDS011;31738;50.188;8.524;2022-07-23T07:29:56;7.82;;;5.30;;
46006;SDS011;31738;50.188;8.524;2022-07-23T07:32:21;7.50;;;5.55;;
46006;SDS011;31738;50.188;8.524;2022-07-23T07:34:46;7.35;;;5.00;;
46006;SDS011;31738;50.188;8.524;2022-07-23T07:37:12;9.45;;;5.82;;
46006;SDS011;31738;50.188;8.524;2022-07-23T07:39:37;7.43;;;5.10;;
46006;SDS011;31738;50.188;8.524;2022-07-23T07:42:03;10.43;;;5.20;;
46006;SDS011;31738;50.188;8.524;2022-07-23T07:44:28;7.60;;;5.55;;
46006;SDS011;31738;50.188;8.524;2022-07-23T07:46:54;7.88;;;5.85;;
46006;SDS011;31738;50.188;8.524;2022-07-23T07:49:19;7.13;;;5.70;;
46006;SDS011;31738;50.188;8.524;2022-07-23T07:51:45;8.80;;;5.70;;
46006;SDS011;31738;50.188;8.524;2022-07-23T07:54:11;6.93;;;5.57;;
46006;SDS011;31738;50.188;8.524;2022-07-23T07:56:37;7.20;;;5.15;;
46006;SDS011;31738;50.188;8.524;2022-07-23T07:59:02;8.23;;;5.55;;
46006;SDS011;31738;50.188;8.524;2022-07-23T08:01:28;8.40;;;5.57;;
46006;SDS011;31738;50.188;8.524;2022-07-23T08:03:53;6.32;;;5.25;;
46006;SDS011;31738;50.188;8.524;2022-07-23T08:06:19;7.63;;;5.20;;
46006;SDS011;31738;50.188;8.524;2022-07-23T08:08:44;8.75;;;5.18;;
46006;SDS011;31738;50.188;8.524;2022-07-23T08:11:10;7.55;;;5.28;;
46006;SDS011;31738;50.188;8.524;2022-07-23T08:13:35;6.43;;;5.28;;
46006;SDS011;31738;50.188;8.524;2022-07-23T08:16:01;7.20;;;4.95;;
46006;SDS011;31738;50.188;8.524;2022-07-23T08:18:26;5.60;;;5.00;;
46006;SDS011;31738;50.188;8.524;2022-07-23T08:20:52;7.30;;;4.82;;
46006;SDS011;31738;50.188;8.524;2022-07-23T08:23:17;8.18;;;5.32;;
46006;SDS011;31738;50.188;8.524;2022-07-23T08:25:44;9.30;;;5.38;;
46006;SDS011;31738;50.188;8.524;2022-07-23T08:28:11;6.45;;;4.68;;
46006;SDS011;31738;50.188;8.524;2022-07-23T08:30:39;7.93;;;4.80;;
46006;SDS011;31738;50.188;8.524;2022-07-23T08:33:06;8.00;;;5.43;;
46006;SDS011;31738;50.188;8.524;2022-07-23T08:35:40;6.07;;;4.85;;
46006;SDS011;31738;50.188;8.524;2022-07-23T08:38:14;8.60;;;5.20;;
46006;SDS011;31738;50.188;8.524;2022-07-23T08:40:41;6.57;;;4.65;;
46006;SDS011;31738;50.188;8.524;2022-07-23T08:43:10;7.47;;;5.13;;
46006;SDS011;31738;50.188;8.524;2022-07-23T08:45:39;9.32;;;4.97;;
46006;SDS011;31738;50.188;8.524;2022-07-23T08:48:17;6.13;;;4.60;;
46006;SDS011;31738;50.188;8.524;2022-07-23T08:50:45;7.55;;;5.03;;
46006;SDS011;31738;50.188;8.524;2022-07-23T08:53:12;6.20;;;4.30;;
46006;SDS011;31738;50.188;8.524;2022-07-23T08:55:39;8.65;;;5.05;;
46006;SDS011;31738;50.188;8.524;2022-07-23T08:58:05;5.93;;;4.57;;
46006;SDS011;31738;50.188;8.524;2022-07-23T09:00:31;9.30;;;4.38;;
46006;SDS011;31738;50.188;8.524;2022-07-23T09:02:56;6.20;;;4.93;;
46006;SDS011;31738;50.188;8.524;2022-07-23T09:05:22;7.28;;;4.50;;
46006;SDS011;31738;50.188;8.524;2022-07-23T09:10:42;6.57;;;4.60;;
46006;SDS011;31738;50.188;8.524;2022-07-23T09:13:29;6.53;;;4.97;;
46006;SDS011;31738;50.188;8.524;2022-07-23T09:16:01;6.20;;;4.95;;
46006;SDS011;31738;50.188;8.524;2022-07-23T09:18:36;6.60;;;4.40;;
46006;SDS011;31738;50.188;8.524;2022-07-23T09:21:12;6.22;;;4.55;;
46006;SDS011;31738;50.188;8.524;2022-07-23T09:26:26;5.13;;;4.13;;
46006;SDS011;31738;50.188;8.524;2022-07-23T09:29:03;5.45;;;4.30;;
46006;SDS011;31738;50.188;8.524;2022-07-23T09:32:14;5.50;;;4.30;;
46006;SDS011;31738;50.188;8.524;2022-07-23T09:36:52;5.57;;;4.53;;
46006;SDS011;31738;50.188;8.524;2022-07-23T09:39:41;7.60;;;4.88;;
46006;SDS011;31738;50.188;8.524;2022-07-23T09:42:16;5.57;;;4.20;;
46006;SDS011;31738;50.188;8.524;2022-07-23T09:44:48;7.15;;;5.20;;
46006;SDS011;31738;50.188;8.524;2022-07-23T09:47:19;5.75;;;4.40;;
46006;SDS011;31738;50.188;8.524;2022-07-23T09:52:29;5.72;;;4.22;;
46006;SDS011;31738;50.188;8.524;2022-07-23T09:54:59;5.25;;;4.07;;
46006;SDS011;31738;50.188;8.524;2022-07-23T09:57:26;6.05;;;4.40;;
46006;SDS011;31738;50.188;8.524;2022-07-23T09:59:52;5.57;;;4.55;;
46006;SDS011;31738;50.188;8.524;2022-07-23T10:02:18;8.05;;;5.63;;
46006;SDS011;31738;50.188;8.524;2022-07-23T10:05:05;5.70;;;4.93;;
46006;SDS011;31738;50.188;8.524;2022-07-23T10:07:51;6.03;;;4.68;;
46006;SDS011;31738;50.188;8.524;2022-07-23T10:10:35;5.28;;;4.15;;
46006;SDS011;31738;50.188;8.524;2022-07-23T10:13:22;6.15;;;4.63;;
46006;SDS011;31738;50.188;8.524;2022-07-23T10:16:09;7.45;;;4.05;;
46006;SDS011;31738;50.188;8.524;2022-07-23T10:18:35;5.47;;;4.25;;
46006;SDS011;31738;50.188;8.524;2022-07-23T10:29:51;6.05;;;4.57;;
46006;SDS011;31738;50.188;8.524;2022-07-23T10:35:24;5.47;;;3.70;;
46006;SDS011;31738;50.188;8.524;2022-07-23T10:38:13;6.07;;;4.00;;
46006;SDS011;31738;50.188;8.524;2022-07-23T10:40:55;4.97;;;4.03;;
46006;SDS011;31738;50.188;8.524;2022-07-23T10:43:28;5.00;;;4.05;;
46006;SDS011;31738;50.188;8.524;2022-07-23T10:45:55;4.43;;;3.85;;
46006;SDS011;31738;50.188;8.524;2022-07-23T10:48:25;5.18;;;4.50;;
46006;SDS011;31738;50.188;8.524;2022-07-23T10:53:53;10.15;;;5.13;;
46006;SDS011;31738;50.188;8.524;2022-07-23T11:02:32;5.43;;;4.25;;
46006;SDS011;31738;50.188;8.524;2022-07-23T11:04:59;6.07;;;4.40;;
46006;SDS011;31738;50.188;8.524;2022-07-23T11:07:28;7.45;;;4.40;;
46006;SDS011;31738;50.188;8.524;2022-07-23T11:09:53;6.03;;;4.70;;
46006;SDS011;31738;50.188;8.524;2022-07-23T11:15:04;6.57;;;4.40;;
46006;SDS011;31738;50.188;8.524;2022-07-23T11:17:30;5.38;;;4.70;;
46006;SDS011;31738;50.188;8.524;2022-07-23T11:27:38;6.22;;;4.70;;
46006;SDS011;31738;50.188;8.524;2022-07-23T11:30:08;5.88;;;5.28;;
46006;SDS011;31738;50.188;8.524;2022-07-23T11:32:36;7.63;;;5.10;;
46006;SDS011;31738;50.188;8.524;2022-07-23T11:35:18;6.30;;;4.95;;
46006;SDS011;31738;50.188;8.524;2022-07-23T11:37:46;6.38;;;5.13;;
46006;SDS011;31738;50.188;8.524;2022-07-23T11:40:13;5.70;;;4.72;;
46006;SDS011;31738;50.188;8.524;2022-07-23T11:42:58;7.13;;;5.38;;
46006;SDS011;31738;50.188;8.524;2022-07-23T11:45:29;7.80;;;5.55;;
46006;SDS011;31738;50.188;8.524;2022-07-23T11:47:59;7.07;;;5.40;;
46006;SDS011;31738;50.188;8.524;2022-07-23T11:50:25;6.13;;;5.20;;
46006;SDS011;31738;50.188;8.524;2022-07-23T11:52:51;8.15;;;5.82;;
46006;SDS011;31738;50.188;8.524;2022-07-23T11:55:17;6.45;;;5.57;;
46006;SDS011;31738;50.188;8.524;2022-07-23T11:57:44;6.72;;;5.93;;
46006;SDS011;31738;50.188;8.524;2022-07-23T12:02:42;8.98;;;5.78;;
46006;SDS011;31738;50.188;8.524;2022-07-23T12:05:14;6.03;;;4.93;;
46006;SDS011;31738;50.188;8.524;2022-07-23T12:07:43;6.38;;;5.40;;
46006;SDS011;31738;50.188;8.524;2022-07-23T12:10:11;5.90;;;5.30;;
46006;SDS011;31738;50.188;8.524;2022-07-23T12:12:42;6.38;;;4.93;;
46006;SDS011;31738;50.188;8.524;2022-07-23T12:15:13;6.10;;;5.20;;
46006;SDS011;31738;50.188;8.524;2022-07-23T12:17:40;5.75;;;5.05;;
46006;SDS011;31738;50.188;8.524;2022-07-23T12:20:09;5.95;;;5.30;;
46006;SDS011;31738;50.188;8.524;2022-07-23T12:22:38;6.28;;;5.63;;
46006;SDS011;31738;50.188;8.524;2022-07-23T12:25:19;6.40;;;5.53;;
46006;SDS011;31738;50.188;8.524;2022-07-23T12:27:56;9.05;;;5.53;;
46006;SDS011;31738;50.188;8.524;2022-07-23T12:30:34;6.88;;;5.57;;
46006;SDS011;31738;50.188;8.524;2022-07-23T12:33:04;6.45;;;5.40;;
46006;SDS011;31738;50.188;8.524;2022-07-23T12:35:31;6.70;;;5.53;;
46006;SDS011;31738;50.188;8.524;2022-07-23T12:38:03;7.55;;;5.68;;
46006;SDS011;31738;50.188;8.524;2022-07-23T12:43:18;6.55;;;5.80;;
46006;SDS011;31738;50.188;8.524;2022-07-23T12:45:47;6.38;;;5.28;;
46006;SDS011;31738;50.188;8.524;2022-07-23T12:48:20;7.05;;;5.25;;
46006;SDS011;31738;50.188;8.524;2022-07-23T12:50:50;10.35;;;5.68;;
46006;SDS011;31738;50.188;8.524;2022-07-23T12:55:47;5.53;;;4.95;;
46006;SDS011;31738;50.188;8.524;2022-07-23T12:58:14;5.75;;;5.15;;
46006;SDS011;31738;50.188;8.524;2022-07-23T13:00:52;6.95;;;5.55;;
46006;SDS011;31738;50.188;8.524;2022-07-23T13:03:21;10.77;;;5.57;;
46006;SDS011;31738;50.188;8.524;2022-07-23T13:05:49;7.60;;;5.60;;
46006;SDS011;31738;50.188;8.524;2022-07-23T13:08:15;7.85;;;5.38;;
46006;SDS011;31738;50.188;8.524;2022-07-23T13:10:40;7.85;;;5.88;;
46006;SDS011;31738;50.188;8.524;2022-07-23T13:13:12;7.63;;;5.32;;
46006;SDS011;31738;50.188;8.524;2022-07-23T13:15:38;6.70;;;5.28;;
46006;SDS011;31738;50.188;8.524;2022-07-23T13:18:03;6.43;;;5.53;;
46006;SDS011;31738;50.188;8.524;2022-07-23T13:20:29;7.25;;;5.93;;
46006;SDS011;31738;50.188;8.524;2022-07-23T13:22:57;7.75;;;6.18;;
46006;SDS011;31738;50.188;8.524;2022-07-23T13:25:22;8.40;;;6.00;;
46006;SDS011;31738;50.188;8.524;2022-07-23T13:27:48;6.53;;;5.72;;
46006;SDS011;31738;50.188;8.524;2022-07-23T13:30:13;6.72;;;6.03;;
46006;SDS011;31738;50.188;8.524;2022-07-23T13:32:40;6.57;;;5.70;;
46006;SDS011;31738;50.188;8.524;2022-07-23T13:35:05;6.70;;;5.95;;
46006;SDS011;31738;50.188;8.524;2022-07-23T13:37:31;8.43;;;5.63;;
46006;SDS011;31738;50.188;8.524;2022-07-23T13:39:57;8.32;;;6.07;;
46006;SDS011;31738;50.188;8.524;2022-07-23T13:42:22;6.72;;;5.38;;
46006;SDS011;31738;50.188;8.524;2022-07-23T13:44:48;7.00;;;6.07;;
46006;SDS011;31738;50.188;8.524;2022-07-23T13:47:13;7.03;;;5.40;;
46006;SDS011;31738;50.188;8.524;2022-07-23T13:49:39;7.10;;;5.68;;
46006;SDS011;31738;50.188;8.524;2022-07-23T13:52:04;6.60;;;5.90;;
46006;SDS011;31738;50.188;8.524;2022-07-23T13:54:30;7.63;;;5.65;;
46006;SDS011;31738;50.188;8.524;2022-07-23T13:56:55;6.40;;;5.57;;
46006;SDS011;31738;50.188;8.524;2022-07-23T13:59:21;6.70;;;5.50;;
46006;SDS011;31738;50.188;8.524;2022-07-23T14:01:47;7.35;;;5.30;;
46006;SDS011;31738;50.188;8.524;2022-07-23T14:04:12;6.63;;;5.32;;
46006;SDS011;31738;50.188;8.524;2022-07-23T14:06:38;7.95;;;6.13;;
46006;SDS011;31738;50.188;8.524;2022-07-23T14:09:03;5.93;;;5.32;;
46006;SDS011;31738;50.188;8.524;2022-07-23T14:11:29;6.22;;;5.43;;
46006;SDS011;31738;50.188;8.524;2022-07-23T14:13:55;7.28;;;6.10;;
46006;SDS011;31738;50.188;8.524;2022-07-23T14:16:21;8.82;;;5.95;;
46006;SDS011;31738;50.188;8.524;2022-07-23T14:18:47;7.35;;;5.65;;
46006;SDS011;31738;50.188;8.524;2022-07-23T14:21:13;6.78;;;5.10;;
46006;SDS011;31738;50.188;8.524;2022-07-23T14:23:38;7.43;;;5.70;;
46006;SDS011;31738;50.188;8.524;2022-07-23T14:26:03;6.32;;;5.50;;
46006;SDS011;31738;50.188;8.524;2022-07-23T14:28:29;7.22;;;5.50;;
46006;SDS011;31738;50.188;8.524;2022-07-23T14:30:54;6.15;;;5.20;;
46006;SDS011;31738;50.188;8.524;2022-07-23T14:33:20;7.15;;;4.97;;
46006;SDS011;31738;50.188;8.524;2022-07-23T14:35:46;6.63;;;5.25;;
46006;SDS011;31738;50.188;8.524;2022-07-23T14:38:11;6.43;;;5.18;;
46006;SDS011;31738;50.188;8.524;2022-07-23T14:40:37;6.88;;;5.22;;
46006;SDS011;31738;50.188;8.524;2022-07-23T14:43:02;6.70;;;4.95;;
46006;SDS011;31738;50.188;8.524;2022-07-23T14:45:28;5.65;;;4.55;;
46006;SDS011;31738;50.188;8.524;2022-07-23T14:47:55;8.25;;;5.05;;
46006;SDS011;31738;50.188;8.524;2022-07-23T14:50:21;5.05;;;4.53;;
46006;SDS011;31738;50.188;8.524;2022-07-23T14:52:46;6.18;;;5.00;;
46006;SDS011;31738;50.188;8.524;2022-07-23T14:55:12;5.38;;;4.85;;
46006;SDS011;31738;50.188;8.524;2022-07-23T14:57:37;5.75;;;4.78;;
46006;SDS011;31738;50.188;8.524;2022-07-23T15:00:06;5.50;;;4.57;;
46006;SDS011;31738;50.188;8.524;2022-07-23T15:02:32;8.18;;;4.60;;
46006;SDS011;31738;50.188;8.524;2022-07-23T15:04:58;5.70;;;4.68;;
46006;SDS011;31738;50.188;8.524;2022-07-23T15:07:26;6.15;;;5.00;;
46006;SDS011;31738;50.188;8.524;2022-07-23T15:09:52;7.20;;;4.20;;
46006;SDS011;31738;50.188;8.524;2022-07-23T15:12:18;5.80;;;4.60;;
46006;SDS011;31738;50.188;8.524;2022-07-23T15:14:43;5.80;;;4.53;;
46006;SDS011;31738;50.188;8.524;2022-07-23T15:17:09;4.88;;;4.45;;
46006;SDS011;31738;50.188;8.524;2022-07-23T15:19:34;5.45;;;4.47;;
46006;SDS011;31738;50.188;8.524;2022-07-23T15:22:00;4.82;;;4.03;;
46006;SDS011;31738;50.188;8.524;2022-07-23T15:24:25;5.63;;;4.40;;
46006;SDS011;31738;50.188;8.524;2022-07-23T15:26:51;5.43;;;4.75;;
46006;SDS011;31738;50.188;8.524;2022-07-23T15:29:16;6.10;;;4.63;;
46006;SDS011;31738;50.188;8.524;2022-07-23T15:31:42;5.20;;;4.70;;
46006;SDS011;31738;50.188;8.524;2022-07-23T15:34:07;4.80;;;3.85;;
46006;SDS011;31738;50.188;8.524;2022-07-23T15:36:33;5.57;;;4.20;;
46006;SDS011;31738;50.188;8.524;2022-07-23T15:38:58;5.03;;;4.40;;
46006;SDS011;31738;50.188;8.524;2022-07-23T15:41:24;5.63;;;4.93;;